createdAt,value
2022-10-04T00:02:17.738Z,15.07
2022-10-04T00:04:52.218Z,15.57
2022-10-04T00:07:25.300Z,12.37
2022-10-04T00:09:57.201Z,9.00
2022-10-04T00:12:28.429Z,7.90
2022-10-04T00:14:59.303Z,7.07
2022-10-04T00:17:30.368Z,7.47
2022-10-04T00:20:00.364Z,7.37
2022-10-04T00:22:29.672Z,7.07
2022-10-04T00:25:22.219Z,8.07
2022-10-04T00:28:29.886Z,7.53
2022-10-04T00:31:17.902Z,7.70
2022-10-04T00:33:47.697Z,7.60
2022-10-04T00:36:55.117Z,7.77
2022-10-04T00:39:43.924Z,7.87
2022-10-04T00:42:32.702Z,7.63
2022-10-04T00:45:06.160Z,9.73
2022-10-04T00:47:39.420Z,8.00
2022-10-04T00:50:18.683Z,8.40
2022-10-04T00:52:50.783Z,8.03
2022-10-04T00:55:28.204Z,8.30
2022-10-04T00:58:00.524Z,8.03
2022-10-04T01:00:33.171Z,8.77
2022-10-04T01:03:05.692Z,8.33
2022-10-04T01:05:37.523Z,8.57
2022-10-04T01:08:09.700Z,8.60
2022-10-04T01:10:45.046Z,8.73
2022-10-04T01:13:18.754Z,8.40
2022-10-04T01:15:53.686Z,8.40
2022-10-04T01:18:31.421Z,7.97
2022-10-04T01:21:03.900Z,8.33
2022-10-04T01:23:54.597Z,9.70
2022-10-04T01:26:42.020Z,8.97
2022-10-04T01:29:14.165Z,8.77
2022-10-04T01:31:44.688Z,8.33
2022-10-04T01:34:15.647Z,8.50
2022-10-04T01:36:44.314Z,7.80
2022-10-04T01:39:14.905Z,8.07
2022-10-04T01:41:49.991Z,7.23
2022-10-04T01:44:24.259Z,7.40
2022-10-04T01:46:56.200Z,7.97
2022-10-04T01:49:30.263Z,7.23
2022-10-04T01:52:05.307Z,8.30
2022-10-04T01:54:37.557Z,7.43
2022-10-04T01:57:15.227Z,8.37
2022-10-04T01:59:50.528Z,7.13
2022-10-04T02:02:25.614Z,7.00
2022-10-04T02:04:56.771Z,7.67
2022-10-04T02:07:28.303Z,7.37
2022-10-04T02:10:00.553Z,7.73
2022-10-04T02:12:31.438Z,7.00
2022-10-04T02:15:02.318Z,7.43
2022-10-04T02:17:32.974Z,7.03
2022-10-04T02:20:02.563Z,8.37
2022-10-04T02:22:31.236Z,7.47
2022-10-04T02:25:01.245Z,7.77
2022-10-04T02:27:31.300Z,8.57
2022-10-04T02:30:03.672Z,7.87
2022-10-04T02:32:50.983Z,8.00
2022-10-04T02:35:20.757Z,8.90
2022-10-04T02:37:52.971Z,8.53
2022-10-04T02:40:30.215Z,8.53
2022-10-04T02:43:03.525Z,7.77
2022-10-04T02:45:42.966Z,8.47
2022-10-04T02:48:26.605Z,8.20
2022-10-04T02:50:57.906Z,8.60
2022-10-04T02:53:32.404Z,8.43
2022-10-04T02:56:04.093Z,8.87
2022-10-04T02:58:33.242Z,8.77
2022-10-04T03:06:24.654Z,9.20
2022-10-04T03:08:56.314Z,8.80
2022-10-04T03:11:31.019Z,8.93
2022-10-04T03:14:01.340Z,9.37
2022-10-04T03:16:36.773Z,10.10
2022-10-04T03:19:06.783Z,9.37
2022-10-04T03:21:36.751Z,9.73
2022-10-04T03:24:06.593Z,10.53
2022-10-04T03:26:41.103Z,9.53
2022-10-04T03:29:11.213Z,10.53
2022-10-04T03:31:42.890Z,10.37
2022-10-04T03:34:16.683Z,10.57
2022-10-04T03:36:46.883Z,10.77
2022-10-04T03:39:22.344Z,10.43
2022-10-04T03:41:52.571Z,11.00
2022-10-04T03:44:21.936Z,10.60
2022-10-04T03:46:50.173Z,10.70
2022-10-04T03:49:26.713Z,11.07
2022-10-04T03:51:55.128Z,10.60
2022-10-04T03:54:27.947Z,10.97
2022-10-04T03:56:59.312Z,12.63
2022-10-04T03:59:29.027Z,12.27
2022-10-04T04:02:07.124Z,11.47
2022-10-04T04:04:46.916Z,12.77
2022-10-04T04:07:19.913Z,12.33
2022-10-04T04:09:53.702Z,11.23
2022-10-04T04:12:27.166Z,11.23
2022-10-04T04:14:55.676Z,14.43
2022-10-04T04:17:39.085Z,12.67
2022-10-04T04:20:22.834Z,12.70
2022-10-04T04:23:03.800Z,11.50
2022-10-04T04:25:35.877Z,12.07
2022-10-04T04:28:14.589Z,12.80
2022-10-04T04:30:48.504Z,12.37
2022-10-04T04:33:35.505Z,11.70
2022-10-04T04:36:08.365Z,13.23
2022-10-04T04:38:56.457Z,13.60
2022-10-04T04:41:26.277Z,12.23
2022-10-04T04:43:55.777Z,13.40
2022-10-04T04:46:27.667Z,12.07
2022-10-04T04:49:01.994Z,12.77
2022-10-04T04:51:32.441Z,11.30
2022-10-04T04:54:03.660Z,12.43
2022-10-04T04:56:32.774Z,12.67
2022-10-04T04:59:04.872Z,12.77
2022-10-04T05:01:36.465Z,13.53
2022-10-04T05:04:06.736Z,12.60
2022-10-04T05:06:37.752Z,13.60
2022-10-04T05:09:07.210Z,12.40
2022-10-04T05:11:38.746Z,15.17
2022-10-04T05:14:12.006Z,12.63
2022-10-04T05:16:44.582Z,12.63
2022-10-04T05:19:17.554Z,13.50
2022-10-04T05:21:48.125Z,14.50
2022-10-04T05:24:25.025Z,14.47
2022-10-04T05:26:56.174Z,13.20
2022-10-04T05:29:29.298Z,13.63
2022-10-04T05:32:06.214Z,13.30
2022-10-04T05:34:41.086Z,13.97
2022-10-04T05:37:26.855Z,13.43
2022-10-04T05:40:24.765Z,12.57
2022-10-04T05:42:55.258Z,13.20
2022-10-04T05:45:27.906Z,11.63
2022-10-04T05:47:57.716Z,12.33
2022-10-04T05:50:31.805Z,12.83
2022-10-04T05:53:18.086Z,12.10
2022-10-04T05:55:56.693Z,13.03
2022-10-04T05:58:42.171Z,12.13
2022-10-04T06:01:24.433Z,12.47
2022-10-04T06:04:28.594Z,11.73
2022-10-04T06:07:01.455Z,11.73
2022-10-04T06:09:49.925Z,11.53
2022-10-04T06:12:32.736Z,11.47
2022-10-04T06:15:23.534Z,11.80
2022-10-04T06:18:06.738Z,11.20
2022-10-04T06:20:51.813Z,11.20
2022-10-04T06:23:21.461Z,10.50
2022-10-04T06:25:52.516Z,10.53
2022-10-04T06:28:24.579Z,11.53
2022-10-04T06:31:21.665Z,11.00
2022-10-04T06:34:17.621Z,10.30
2022-10-04T06:37:02.657Z,10.23
2022-10-04T06:40:04.642Z,10.40
2022-10-04T06:42:54.142Z,9.33
2022-10-04T06:45:36.428Z,10.00
2022-10-04T06:48:26.733Z,9.50
2022-10-04T06:51:02.013Z,10.53
2022-10-04T06:53:45.384Z,9.63
2022-10-04T06:56:27.298Z,8.93
2022-10-04T06:59:29.787Z,8.60
2022-10-04T07:02:00.631Z,8.70
2022-10-04T07:05:06.558Z,8.50
2022-10-04T07:11:54.488Z,6.63
2022-10-04T07:14:31.059Z,6.03
2022-10-04T07:17:03.168Z,5.10
2022-10-04T07:19:37.313Z,4.80
2022-10-04T07:22:15.894Z,4.50
2022-10-04T07:24:52.995Z,4.53
2022-10-04T07:27:28.837Z,3.80
2022-10-04T07:29:59.387Z,3.63
2022-10-04T07:32:29.974Z,3.50
2022-10-04T07:35:05.011Z,3.40
2022-10-04T07:37:37.422Z,3.70
2022-10-04T07:40:17.299Z,3.70
2022-10-04T07:42:54.371Z,4.68
2022-10-04T07:45:30.071Z,4.00
2022-10-04T07:48:05.668Z,4.30
2022-10-04T07:50:40.243Z,4.05
2022-10-04T07:53:13.066Z,3.30
2022-10-04T07:55:50.540Z,4.30
2022-10-04T07:58:29.982Z,4.47
2022-10-04T08:01:02.082Z,4.10
2022-10-04T08:03:49.208Z,3.80
2022-10-04T08:06:23.473Z,3.58
2022-10-04T08:09:20.967Z,3.92
2022-10-04T08:11:59.470Z,4.20
2022-10-04T08:14:44.845Z,4.07
2022-10-04T08:17:20.914Z,4.28
2022-10-04T08:20:01.010Z,3.42
2022-10-04T08:22:40.145Z,3.90
2022-10-04T08:25:17.739Z,3.78
2022-10-04T08:28:11.533Z,4.30
2022-10-04T08:31:02.733Z,3.50
2022-10-04T08:33:50.129Z,3.63
2022-10-04T08:36:30.362Z,3.60
2022-10-04T08:38:59.597Z,3.92
2022-10-04T08:42:06.598Z,4.47
2022-10-04T08:45:04.730Z,3.65
2022-10-04T08:48:22.686Z,4.03
2022-10-04T08:51:22.952Z,4.03
2022-10-04T08:54:20.671Z,4.35
2022-10-04T08:57:04.388Z,4.30
2022-10-04T09:00:09.743Z,4.40
2022-10-04T09:03:05.208Z,4.22
2022-10-04T09:05:47.619Z,3.88
2022-10-04T09:08:54.467Z,3.85
2022-10-04T09:11:59.991Z,3.78
2022-10-04T09:15:05.007Z,3.70
2022-10-04T09:17:44.520Z,4.20
2022-10-04T09:20:38.830Z,4.25
2022-10-04T09:23:27.137Z,4.18
2022-10-04T09:26:20.933Z,3.80
2022-10-04T09:29:23.195Z,4.10
2022-10-04T09:32:25.326Z,3.67
2022-10-04T09:35:13.985Z,4.22
2022-10-04T09:37:57.069Z,4.30
2022-10-04T09:41:03.926Z,4.28
2022-10-04T09:44:00.382Z,4.10
2022-10-04T09:46:57.468Z,4.15
2022-10-04T09:49:47.049Z,4.10
2022-10-04T09:52:31.028Z,4.18
2022-10-04T09:55:19.182Z,3.33
2022-10-04T09:58:06.022Z,4.38
2022-10-04T10:00:40.453Z,4.25
2022-10-04T10:04:08.411Z,4.43
2022-10-04T10:07:06.003Z,4.13
2022-10-04T10:10:00.956Z,4.45
2022-10-04T10:13:03.679Z,4.55
2022-10-04T10:15:43.336Z,4.22
2022-10-04T10:18:19.611Z,5.20
2022-10-04T10:21:16.793Z,5.45
2022-10-04T10:24:00.783Z,4.68
2022-10-04T10:26:48.208Z,4.88
2022-10-04T10:29:52.831Z,4.78
2022-10-04T10:32:56.917Z,4.18
2022-10-04T10:35:42.833Z,4.22
2022-10-04T10:38:40.221Z,4.22
2022-10-04T10:41:38.988Z,4.68
2022-10-04T10:44:33.435Z,3.97
2022-10-04T10:47:16.557Z,5.07
2022-10-04T10:50:04.772Z,4.35
2022-10-04T10:53:09.170Z,4.55
2022-10-04T10:56:08.578Z,4.22
2022-10-04T10:59:10.747Z,4.20
2022-10-04T11:02:12.274Z,4.22
2022-10-04T11:04:58.593Z,3.78
2022-10-04T11:07:44.717Z,3.95
2022-10-04T11:10:50.031Z,3.85
2022-10-04T11:13:58.296Z,3.63
2022-10-04T11:17:04.035Z,4.53
2022-10-04T11:20:15.544Z,3.83
2022-10-04T11:23:33.100Z,3.80
2022-10-04T11:26:30.032Z,3.22
2022-10-04T11:29:10.486Z,4.20
2022-10-04T11:32:07.277Z,3.88
2022-10-04T11:35:35.146Z,3.83
2022-10-04T11:38:16.605Z,4.03
2022-10-04T11:41:14.469Z,3.67
2022-10-04T11:44:15.914Z,3.00
2022-10-04T11:46:50.170Z,3.33
2022-10-04T11:49:40.916Z,3.50
2022-10-04T11:52:44.309Z,3.45
2022-10-04T12:07:27.804Z,3.03
2022-10-04T12:10:11.057Z,2.85
2022-10-04T12:13:17.234Z,3.55
2022-10-04T12:15:54.950Z,3.22
2022-10-04T12:18:46.163Z,3.00
2022-10-04T12:21:38.874Z,2.97
2022-10-04T12:24:47.628Z,2.72
2022-10-04T12:27:45.248Z,2.90
2022-10-04T12:30:26.630Z,3.10
2022-10-04T12:33:03.482Z,2.65
2022-10-04T12:35:41.145Z,2.55
2022-10-04T12:38:23.443Z,2.30
2022-10-04T12:40:57.914Z,2.70
2022-10-04T12:43:37.078Z,2.50
2022-10-04T12:46:19.120Z,2.85
2022-10-04T12:49:03.789Z,3.50
2022-10-04T12:51:53.982Z,2.45
2022-10-04T12:54:35.504Z,2.97
2022-10-04T12:57:23.338Z,2.50
2022-10-04T13:00:01.557Z,2.95
2022-10-04T13:02:47.756Z,2.80
2022-10-04T13:05:22.531Z,2.08
2022-10-04T13:08:06.742Z,2.08
2022-10-04T13:10:48.100Z,1.90
2022-10-04T13:13:53.060Z,3.00
2022-10-04T13:19:34.053Z,2.25
2022-10-04T13:22:43.923Z,2.40
2022-10-04T13:25:30.505Z,2.50
2022-10-04T13:28:02.759Z,2.70
2022-10-04T13:30:39.490Z,2.08
2022-10-04T13:33:26.645Z,2.05
2022-10-04T13:36:04.696Z,2.78
2022-10-04T13:38:51.667Z,2.42
2022-10-04T13:41:33.899Z,2.03
2022-10-04T13:44:37.374Z,2.05
2022-10-04T13:47:24.704Z,2.72
2022-10-04T13:50:13.607Z,2.60
2022-10-04T13:53:07.691Z,2.70
2022-10-04T13:55:59.329Z,2.70
2022-10-04T13:58:36.042Z,2.40
2022-10-04T14:01:31.207Z,2.53
2022-10-04T14:04:12.762Z,2.22
2022-10-04T14:07:30.112Z,2.33
2022-10-04T14:10:11.868Z,2.53
2022-10-04T14:13:28.394Z,2.10
2022-10-04T14:16:34.471Z,2.50
2022-10-04T14:19:42.773Z,2.28
2022-10-04T14:22:41.263Z,2.10
2022-10-04T14:25:45.710Z,2.50
2022-10-04T14:29:04.497Z,2.17
2022-10-04T14:32:06.445Z,2.90
2022-10-04T14:34:58.261Z,2.60
2022-10-04T14:38:08.115Z,2.50
2022-10-04T14:41:01.919Z,2.33
2022-10-04T14:44:02.758Z,3.13
2022-10-04T14:46:42.716Z,3.28
2022-10-04T14:49:20.678Z,3.08
2022-10-04T14:52:06.352Z,3.17
2022-10-04T14:54:45.701Z,2.67
2022-10-04T14:57:22.810Z,2.70
2022-10-04T15:00:11.866Z,2.33
2022-10-04T15:03:01.686Z,2.60
2022-10-04T15:05:58.258Z,2.60
2022-10-04T15:08:48.643Z,2.85
2022-10-04T15:11:20.968Z,2.75
2022-10-04T15:13:55.868Z,3.33
2022-10-04T15:16:37.314Z,2.80
2022-10-04T15:19:12.654Z,2.85
2022-10-04T15:21:47.666Z,2.92
2022-10-04T15:24:28.964Z,3.00
2022-10-04T15:27:24.002Z,3.10
2022-10-04T15:30:03.472Z,3.95
2022-10-04T15:32:37.475Z,2.90
2022-10-04T15:35:22.060Z,2.90
2022-10-04T15:37:57.083Z,2.65
2022-10-04T15:40:40.874Z,2.38
2022-10-04T15:43:21.857Z,2.50
2022-10-04T15:46:25.180Z,2.88
2022-10-04T15:49:09.119Z,2.72
2022-10-04T15:52:03.204Z,2.60
2022-10-04T15:54:52.206Z,2.53
2022-10-04T15:57:31.375Z,2.85
2022-10-04T16:00:11.750Z,2.20
2022-10-04T16:02:49.993Z,2.92
2022-10-04T16:05:32.586Z,2.38
2022-10-04T16:08:28.895Z,3.40
2022-10-04T16:11:39.040Z,3.28
2022-10-04T16:14:26.714Z,2.85
2022-10-04T16:17:28.445Z,3.42
2022-10-04T16:20:07.714Z,3.38
2022-10-04T16:22:38.250Z,2.80
2022-10-04T16:25:35.933Z,2.78
2022-10-04T16:28:14.028Z,3.92
2022-10-04T16:30:48.747Z,2.85
2022-10-04T16:33:33.397Z,3.15
2022-10-04T16:36:10.000Z,3.50
2022-10-04T16:39:07.641Z,3.72
2022-10-04T16:41:44.351Z,3.23
2022-10-04T16:44:30.255Z,3.63
2022-10-04T17:02:37.786Z,3.63
2022-10-04T17:05:34.063Z,3.43
2022-10-04T17:08:20.698Z,4.30
2022-10-04T17:11:10.995Z,4.07
2022-10-04T17:13:56.634Z,4.23
2022-10-04T17:16:34.562Z,4.37
2022-10-04T17:19:30.053Z,4.13
2022-10-04T17:22:11.323Z,4.30
2022-10-04T17:25:00.180Z,4.63
2022-10-04T17:27:47.030Z,4.10
2022-10-04T17:30:19.458Z,3.87
2022-10-04T17:33:24.352Z,4.00
2022-10-04T17:36:14.375Z,4.17
2022-10-04T17:38:52.653Z,4.70
2022-10-04T17:41:31.163Z,4.33
2022-10-04T17:44:28.264Z,4.50
2022-10-04T17:47:01.300Z,4.63
2022-10-04T18:01:07.859Z,4.80
2022-10-04T18:03:39.852Z,4.83
2022-10-04T18:06:21.243Z,4.57
2022-10-04T18:08:56.111Z,5.27
2022-10-04T18:11:34.097Z,5.17
2022-10-04T18:14:06.265Z,5.07
2022-10-04T18:16:50.169Z,6.03
2022-10-04T18:19:41.629Z,6.00
2022-10-04T18:22:15.605Z,5.00
2022-10-04T18:24:45.606Z,12.67
2022-10-04T18:27:21.647Z,7.23
2022-10-04T18:30:11.830Z,5.67
2022-10-04T18:32:47.254Z,5.07
2022-10-04T18:35:26.633Z,5.37
2022-10-04T18:37:57.018Z,5.00
2022-10-04T18:40:28.524Z,5.83
2022-10-04T18:42:58.647Z,5.20
2022-10-04T18:45:28.521Z,5.13
2022-10-04T18:48:00.103Z,5.57
2022-10-04T18:50:37.044Z,5.37
2022-10-04T18:53:41.620Z,6.00
2022-10-04T18:56:10.803Z,5.40
2022-10-04T18:59:11.318Z,6.13
2022-10-04T19:02:02.928Z,5.67
2022-10-04T19:04:59.620Z,5.40
2022-10-04T19:07:37.848Z,5.73
2022-10-04T19:10:25.944Z,5.67
2022-10-04T19:13:19.584Z,5.40
2022-10-04T19:16:12.698Z,6.33
2022-10-04T19:19:02.758Z,5.93
2022-10-04T19:21:41.502Z,5.77
2022-10-04T19:24:24.609Z,5.37
2022-10-04T19:27:03.213Z,5.47
2022-10-04T19:29:49.507Z,5.67
2022-10-04T19:32:29.968Z,5.90
2022-10-04T19:35:07.985Z,5.47
2022-10-04T19:37:46.382Z,5.73
2022-10-04T19:40:22.507Z,5.77
2022-10-04T19:42:59.970Z,4.93
2022-10-04T19:45:36.042Z,5.67
2022-10-04T19:48:11.146Z,4.80
2022-10-04T19:50:45.150Z,5.43
2022-10-04T19:53:19.143Z,5.60
2022-10-04T19:55:54.193Z,5.03
2022-10-04T19:58:32.042Z,5.07
2022-10-04T20:01:00.469Z,4.90
2022-10-04T20:03:28.699Z,5.30
2022-10-04T20:05:57.590Z,4.80
2022-10-04T20:09:02.540Z,4.73
2022-10-04T20:11:49.805Z,5.13
2022-10-04T20:14:54.603Z,4.90
2022-10-04T20:17:34.038Z,5.03
2022-10-04T20:20:02.442Z,4.57
2022-10-04T20:22:52.877Z,4.27
2022-10-04T20:26:00.675Z,4.90
2022-10-04T20:28:46.254Z,5.20
2022-10-04T20:31:47.708Z,5.07
2022-10-04T20:34:34.709Z,4.50
2022-10-04T20:37:22.832Z,4.47
2022-10-04T20:40:03.599Z,4.87
2022-10-04T20:42:39.538Z,4.63
2022-10-04T20:45:23.292Z,5.07
2022-10-04T20:47:54.279Z,4.30
2022-10-04T20:50:43.219Z,4.70
2022-10-04T20:53:19.009Z,5.03
2022-10-04T20:55:48.070Z,4.20
2022-10-04T20:58:35.513Z,4.00
2022-10-04T21:01:16.923Z,4.63
2022-10-04T21:03:45.453Z,4.67
2022-10-04T21:06:18.283Z,4.83
2022-10-04T21:08:48.628Z,4.57
2022-10-04T21:11:24.585Z,4.50
2022-10-04T21:14:00.157Z,3.90
2022-10-04T21:16:45.215Z,4.23
2022-10-04T21:19:53.616Z,4.30
2022-10-04T21:22:42.688Z,4.30
2022-10-04T21:25:35.930Z,4.70
2022-10-04T21:28:34.256Z,5.47
2022-10-04T21:31:05.218Z,4.80
2022-10-04T21:33:36.420Z,5.00
2022-10-04T21:36:06.141Z,4.47
2022-10-04T21:38:34.377Z,4.37
2022-10-04T21:41:02.903Z,4.67
2022-10-04T21:43:31.564Z,4.40
2022-10-04T21:45:59.902Z,4.87
2022-10-04T21:48:28.525Z,4.77
2022-10-04T21:50:58.107Z,4.53
2022-10-04T21:53:29.324Z,4.50
2022-10-04T21:55:57.490Z,5.23
2022-10-04T21:58:25.654Z,4.33
2022-10-04T22:00:53.808Z,4.20
2022-10-04T22:03:23.740Z,4.90
2022-10-04T22:05:51.903Z,4.63
2022-10-04T22:12:12.354Z,4.70
2022-10-04T22:14:42.426Z,4.50
2022-10-04T22:17:10.510Z,4.37
2022-10-04T22:19:38.543Z,4.47
2022-10-04T22:22:08.695Z,4.63
2022-10-04T22:24:37.566Z,4.47
2022-10-04T22:27:13.977Z,5.67
2022-10-04T22:29:42.035Z,4.80
2022-10-04T22:32:14.314Z,4.57
2022-10-04T22:34:42.390Z,4.53
2022-10-04T22:37:12.431Z,4.93
2022-10-04T22:39:40.573Z,4.97
2022-10-04T22:42:15.315Z,4.00
2022-10-04T22:44:43.434Z,4.53
2022-10-04T22:47:16.364Z,5.10
2022-10-04T22:49:46.346Z,4.37
2022-10-04T22:52:17.855Z,4.23
2022-10-04T22:54:47.655Z,4.90
2022-10-04T22:57:19.301Z,4.43
2022-10-04T22:59:51.934Z,4.90
2022-10-04T23:02:24.107Z,4.57
2022-10-04T23:04:56.488Z,5.40
2022-10-04T23:07:25.945Z,5.30
2022-10-04T23:09:54.012Z,4.73
2022-10-04T23:12:23.496Z,4.60
2022-10-04T23:14:51.593Z,4.83
2022-10-04T23:17:26.532Z,4.60
2022-10-04T23:19:57.779Z,4.67
2022-10-04T23:22:31.102Z,4.83
2022-10-04T23:24:59.484Z,5.13
2022-10-04T23:27:30.255Z,4.67
2022-10-04T23:30:03.393Z,4.33
2022-10-04T23:32:33.819Z,5.37
2022-10-04T23:35:02.713Z,5.20
2022-10-04T23:37:33.528Z,5.13
2022-10-04T23:40:01.820Z,4.80
2022-10-04T23:42:36.911Z,4.63
2022-10-04T23:45:16.433Z,4.80
2022-10-04T23:47:45.404Z,4.93
2022-10-04T23:50:22.200Z,4.47
2022-10-04T23:52:51.719Z,4.70
2022-10-04T23:55:22.378Z,4.77
2022-10-04T23:57:52.369Z,4.63
